sensor_id;sensor_type;location;lat;lon;timestamp;temperature;humidity
28773;DHT22;15925;51.222;5.678;2022-08-21T00:01:00;17.40;99.90
28773;DHT22;15925;51.222;5.678;2022-08-21T00:03:29;17.40;99.90
28773;DHT22;15925;51.222;5.678;2022-08-21T00:05:54;17.30;99.90
28773;DHT22;15925;51.222;5.678;2022-08-21T00:08:21;17.30;99.90
28773;DHT22;15925;51.222;5.678;2022-08-21T00:10:47;17.30;99.90
28773;DHT22;15925;51.222;5.678;2022-08-21T00:13:13;17.30;99.90
28773;DHT22;15925;51.222;5.678;2022-08-21T00:15:40;17.20;99.90
28773;DHT22;15925;51.222;5.678;2022-08-21T00:18:07;17.20;99.90
28773;DHT22;15925;51.222;5.678;2022-08-21T00:20:36;17.10;99.90
28773;DHT22;15925;51.222;5.678;2022-08-21T00:23:03;17.10;99.90
28773;DHT22;15925;51.222;5.678;2022-08-21T00:25:29;17.10;99.90
28773;DHT22;15925;51.222;5.678;2022-08-21T00:27:56;17.10;99.90
28773;DHT22;15925;51.222;5.678;2022-08-21T00:30:24;17.00;99.90
28773;DHT22;15925;51.222;5.678;2022-08-21T00:32:52;17.00;99.90
28773;DHT22;15925;51.222;5.678;2022-08-21T00:35:21;17.00;99.90
28773;DHT22;15925;51.222;5.678;2022-08-21T00:37:47;17.00;99.90
28773;DHT22;15925;51.222;5.678;2022-08-21T00:40:16;17.00;99.90
28773;DHT22;15925;51.222;5.678;2022-08-21T00:42:43;17.00;99.90
28773;DHT22;15925;51.222;5.678;2022-08-21T00:45:10;17.00;99.90
28773;DHT22;15925;51.222;5.678;2022-08-21T00:47:36;16.90;99.90
28773;DHT22;15925;51.222;5.678;2022-08-21T00:50:04;16.90;99.90
28773;DHT22;15925;51.222;5.678;2022-08-21T00:52:32;16.90;99.90
28773;DHT22;15925;51.222;5.678;2022-08-21T00:55:00;16.80;99.90
28773;DHT22;15925;51.222;5.678;2022-08-21T00:57:30;16.80;99.90
28773;DHT22;15925;51.222;5.678;2022-08-21T01:00:00;16.80;99.90
28773;DHT22;15925;51.222;5.678;2022-08-21T01:02:26;16.80;99.90
28773;DHT22;15925;51.222;5.678;2022-08-21T01:04:53;16.90;99.90
28773;DHT22;15925;51.222;5.678;2022-08-21T01:07:18;16.80;99.90
28773;DHT22;15925;51.222;5.678;2022-08-21T01:09:46;16.80;99.90
28773;DHT22;15925;51.222;5.678;2022-08-21T01:12:14;16.80;99.90
28773;DHT22;15925;51.222;5.678;2022-08-21T01:14:40;16.70;99.90
28773;DHT22;15925;51.222;5.678;2022-08-21T01:17:08;16.60;99.90
28773;DHT22;15925;51.222;5.678;2022-08-21T01:19:35;16.60;99.90
28773;DHT22;15925;51.222;5.678;2022-08-21T01:22:01;16.50;99.90
28773;DHT22;15925;51.222;5.678;2022-08-21T01:24:26;16.60;99.90
28773;DHT22;15925;51.222;5.678;2022-08-21T01:26:52;16.50;99.90
28773;DHT22;15925;51.222;5.678;2022-08-21T01:29:48;16.50;99.90
28773;DHT22;15925;51.222;5.678;2022-08-21T01:32:19;16.40;99.90
28773;DHT22;15925;51.222;5.678;2022-08-21T01:34:47;16.40;99.90
28773;DHT22;15925;51.222;5.678;2022-08-21T01:37:14;16.40;99.90
28773;DHT22;15925;51.222;5.678;2022-08-21T01:39:40;16.40;99.90
28773;DHT22;15925;51.222;5.678;2022-08-21T01:42:08;16.40;99.90
28773;DHT22;15925;51.222;5.678;2022-08-21T01:44:33;16.40;99.90
28773;DHT22;15925;51.222;5.678;2022-08-21T01:47:01;16.30;99.90
28773;DHT22;15925;51.222;5.678;2022-08-21T01:49:27;16.30;99.90
28773;DHT22;15925;51.222;5.678;2022-08-21T01:51:54;16.30;99.90
28773;DHT22;15925;51.222;5.678;2022-08-21T01:54:20;16.30;99.90
28773;DHT22;15925;51.222;5.678;2022-08-21T01:56:50;16.30;99.90
28773;DHT22;15925;51.222;5.678;2022-08-21T01:59:16;16.30;99.90
28773;DHT22;15925;51.222;5.678;2022-08-21T02:01:42;16.20;99.90
28773;DHT22;15925;51.222;5.678;2022-08-21T02:04:09;16.30;99.90
28773;DHT22;15925;51.222;5.678;2022-08-21T02:06:36;16.20;99.90
28773;DHT22;15925;51.222;5.678;2022-08-21T02:09:04;16.20;99.90
28773;DHT22;15925;51.222;5.678;2022-08-21T02:11:30;16.20;99.90
28773;DHT22;15925;51.222;5.678;2022-08-21T02:13:56;16.20;99.90
28773;DHT22;15925;51.222;5.678;2022-08-21T02:16:22;16.20;99.90
28773;DHT22;15925;51.222;5.678;2022-08-21T02:18:48;16.10;99.90
28773;DHT22;15925;51.222;5.678;2022-08-21T02:21:14;16.10;99.90
28773;DHT22;15925;51.222;5.678;2022-08-21T02:23:39;16.10;99.90
28773;DHT22;15925;51.222;5.678;2022-08-21T02:26:07;16.10;99.90
28773;DHT22;15925;51.222;5.678;2022-08-21T02:28:34;16.10;99.90
28773;DHT22;15925;51.222;5.678;2022-08-21T02:31:01;16.10;99.90
28773;DHT22;15925;51.222;5.678;2022-08-21T02:33:27;16.00;99.90
28773;DHT22;15925;51.222;5.678;2022-08-21T02:35:54;16.00;99.90
28773;DHT22;15925;51.222;5.678;2022-08-21T02:38:28;16.00;99.90
28773;DHT22;15925;51.222;5.678;2022-08-21T02:40:56;15.90;99.90
28773;DHT22;15925;51.222;5.678;2022-08-21T02:43:23;15.90;99.90
28773;DHT22;15925;51.222;5.678;2022-08-21T02:45:50;15.90;99.90
28773;DHT22;15925;51.222;5.678;2022-08-21T02:48:20;15.90;99.90
28773;DHT22;15925;51.222;5.678;2022-08-21T02:50:55;15.90;99.90
28773;DHT22;15925;51.222;5.678;2022-08-21T02:53:22;15.90;99.90
28773;DHT22;15925;51.222;5.678;2022-08-21T02:55:49;15.80;99.90
28773;DHT22;15925;51.222;5.678;2022-08-21T02:58:19;15.80;99.90
28773;DHT22;15925;51.222;5.678;2022-08-21T03:00:45;15.80;99.90
28773;DHT22;15925;51.222;5.678;2022-08-21T03:03:11;15.80;99.90
28773;DHT22;15925;51.222;5.678;2022-08-21T03:05:37;15.80;99.90
28773;DHT22;15925;51.222;5.678;2022-08-21T03:08:06;15.80;99.90
28773;DHT22;15925;51.222;5.678;2022-08-21T03:10:37;15.80;99.90
28773;DHT22;15925;51.222;5.678;2022-08-21T03:13:04;15.80;99.90
28773;DHT22;15925;51.222;5.678;2022-08-21T03:15:30;15.70;99.90
28773;DHT22;15925;51.222;5.678;2022-08-21T03:17:56;15.80;99.90
28773;DHT22;15925;51.222;5.678;2022-08-21T03:20:24;15.70;99.90
28773;DHT22;15925;51.222;5.678;2022-08-21T03:22:52;15.70;99.90
28773;DHT22;15925;51.222;5.678;2022-08-21T03:25:19;15.70;99.90
28773;DHT22;15925;51.222;5.678;2022-08-21T03:27:46;15.70;99.90
28773;DHT22;15925;51.222;5.678;2022-08-21T03:30:15;15.70;99.90
28773;DHT22;15925;51.222;5.678;2022-08-21T03:32:41;15.70;99.90
28773;DHT22;15925;51.222;5.678;2022-08-21T03:35:08;15.70;99.90
28773;DHT22;15925;51.222;5.678;2022-08-21T03:37:37;15.70;99.90
28773;DHT22;15925;51.222;5.678;2022-08-21T03:40:05;15.60;99.90
28773;DHT22;15925;51.222;5.678;2022-08-21T03:42:31;15.70;99.90
28773;DHT22;15925;51.222;5.678;2022-08-21T03:44:57;15.70;99.90
28773;DHT22;15925;51.222;5.678;2022-08-21T03:47:23;15.60;99.90
28773;DHT22;15925;51.222;5.678;2022-08-21T03:49:49;15.60;99.90
28773;DHT22;15925;51.222;5.678;2022-08-21T03:52:15;15.60;99.90
28773;DHT22;15925;51.222;5.678;2022-08-21T03:54:43;15.60;99.90
28773;DHT22;15925;51.222;5.678;2022-08-21T03:57:09;15.60;99.90
28773;DHT22;15925;51.222;5.678;2022-08-21T03:59:37;15.60;99.90
28773;DHT22;15925;51.222;5.678;2022-08-21T04:02:03;15.60;99.90
28773;DHT22;15925;51.222;5.678;2022-08-21T04:04:30;15.50;99.90
28773;DHT22;15925;51.222;5.678;2022-08-21T04:06:56;15.50;99.90
28773;DHT22;15925;51.222;5.678;2022-08-21T04:09:23;15.50;99.90
28773;DHT22;15925;51.222;5.678;2022-08-21T04:11:49;15.40;99.90
28773;DHT22;15925;51.222;5.678;2022-08-21T04:14:15;15.40;99.90
28773;DHT22;15925;51.222;5.678;2022-08-21T04:16:42;15.40;99.90
28773;DHT22;15925;51.222;5.678;2022-08-21T04:19:09;15.40;99.90
28773;DHT22;15925;51.222;5.678;2022-08-21T04:21:35;15.40;99.90
28773;DHT22;15925;51.222;5.678;2022-08-21T04:24:04;15.40;99.90
28773;DHT22;15925;51.222;5.678;2022-08-21T04:26:30;15.40;99.90
28773;DHT22;15925;51.222;5.678;2022-08-21T04:28:57;15.40;99.90
28773;DHT22;15925;51.222;5.678;2022-08-21T04:31:24;15.30;99.90
28773;DHT22;15925;51.222;5.678;2022-08-21T04:33:50;15.30;99.90
28773;DHT22;15925;51.222;5.678;2022-08-21T04:36:16;15.30;99.90
28773;DHT22;15925;51.222;5.678;2022-08-21T04:38:42;15.30;99.90
28773;DHT22;15925;51.222;5.678;2022-08-21T04:41:08;15.30;99.90
28773;DHT22;15925;51.222;5.678;2022-08-21T04:43:34;15.20;99.90
28773;DHT22;15925;51.222;5.678;2022-08-21T04:46:00;15.20;99.90
28773;DHT22;15925;51.222;5.678;2022-08-21T04:48:27;15.20;99.90
28773;DHT22;15925;51.222;5.678;2022-08-21T04:51:03;15.20;99.90
28773;DHT22;15925;51.222;5.678;2022-08-21T04:53:47;15.20;99.90
28773;DHT22;15925;51.222;5.678;2022-08-21T04:56:24;15.20;99.90
28773;DHT22;15925;51.222;5.678;2022-08-21T04:58:55;15.20;99.90
28773;DHT22;15925;51.222;5.678;2022-08-21T05:01:23;15.20;99.90
28773;DHT22;15925;51.222;5.678;2022-08-21T05:03:53;15.20;99.90
28773;DHT22;15925;51.222;5.678;2022-08-21T05:06:21;15.20;99.90
28773;DHT22;15925;51.222;5.678;2022-08-21T05:08:49;15.20;99.90
28773;DHT22;15925;51.222;5.678;2022-08-21T05:11:17;15.20;99.90
28773;DHT22;15925;51.222;5.678;2022-08-21T05:13:43;15.20;99.90
28773;DHT22;15925;51.222;5.678;2022-08-21T05:16:09;15.20;99.90
28773;DHT22;15925;51.222;5.678;2022-08-21T05:18:35;15.20;99.90
28773;DHT22;15925;51.222;5.678;2022-08-21T05:21:01;15.20;99.90
28773;DHT22;15925;51.222;5.678;2022-08-21T05:23:26;15.20;99.90
28773;DHT22;15925;51.222;5.678;2022-08-21T05:25:53;15.20;99.90
28773;DHT22;15925;51.222;5.678;2022-08-21T05:28:19;15.20;99.90
28773;DHT22;15925;51.222;5.678;2022-08-21T05:30:45;15.20;99.90
28773;DHT22;15925;51.222;5.678;2022-08-21T05:33:10;15.20;99.90
28773;DHT22;15925;51.222;5.678;2022-08-21T05:35:38;15.30;99.90
28773;DHT22;15925;51.222;5.678;2022-08-21T05:38:04;15.30;99.90
28773;DHT22;15925;51.222;5.678;2022-08-21T05:40:31;15.30;99.90
28773;DHT22;15925;51.222;5.678;2022-08-21T05:42:57;15.30;99.90
28773;DHT22;15925;51.222;5.678;2022-08-21T05:45:27;15.30;99.90
28773;DHT22;15925;51.222;5.678;2022-08-21T05:47:53;15.40;99.90
28773;DHT22;15925;51.222;5.678;2022-08-21T05:50:19;15.40;99.90
28773;DHT22;15925;51.222;5.678;2022-08-21T05:52:45;15.40;99.90
28773;DHT22;15925;51.222;5.678;2022-08-21T05:55:11;15.40;99.90
28773;DHT22;15925;51.222;5.678;2022-08-21T05:57:37;15.40;99.90
28773;DHT22;15925;51.222;5.678;2022-08-21T06:00:07;15.50;99.90
28773;DHT22;15925;51.222;5.678;2022-08-21T06:02:39;15.50;99.90
28773;DHT22;15925;51.222;5.678;2022-08-21T06:05:05;15.50;99.90
28773;DHT22;15925;51.222;5.678;2022-08-21T06:07:31;15.50;99.90
28773;DHT22;15925;51.222;5.678;2022-08-21T06:09:57;15.50;99.90
28773;DHT22;15925;51.222;5.678;2022-08-21T06:12:22;15.60;99.90
28773;DHT22;15925;51.222;5.678;2022-08-21T06:14:48;15.60;99.90
28773;DHT22;15925;51.222;5.678;2022-08-21T06:17:16;15.60;99.90
28773;DHT22;15925;51.222;5.678;2022-08-21T06:19:41;15.60;99.90
28773;DHT22;15925;51.222;5.678;2022-08-21T06:22:07;15.70;99.90
28773;DHT22;15925;51.222;5.678;2022-08-21T06:24:33;15.70;99.90
28773;DHT22;15925;51.222;5.678;2022-08-21T06:27:06;15.70;99.90
28773;DHT22;15925;51.222;5.678;2022-08-21T06:29:34;15.70;99.90
28773;DHT22;15925;51.222;5.678;2022-08-21T06:32:00;15.70;99.90
28773;DHT22;15925;51.222;5.678;2022-08-21T06:34:26;15.70;99.90
28773;DHT22;15925;51.222;5.678;2022-08-21T06:36:52;15.70;99.90
28773;DHT22;15925;51.222;5.678;2022-08-21T06:39:18;15.70;99.90
28773;DHT22;15925;51.222;5.678;2022-08-21T06:41:44;15.70;99.90
28773;DHT22;15925;51.222;5.678;2022-08-21T06:44:10;15.70;99.90
28773;DHT22;15925;51.222;5.678;2022-08-21T06:46:36;15.80;99.90
28773;DHT22;15925;51.222;5.678;2022-08-21T06:49:03;15.80;99.90
28773;DHT22;15925;51.222;5.678;2022-08-21T06:51:29;15.90;99.90
28773;DHT22;15925;51.222;5.678;2022-08-21T06:53:55;15.90;99.90
28773;DHT22;15925;51.222;5.678;2022-08-21T06:56:21;15.90;99.90
28773;DHT22;15925;51.222;5.678;2022-08-21T06:58:46;16.00;99.90
28773;DHT22;15925;51.222;5.678;2022-08-21T07:01:12;16.00;99.90
28773;DHT22;15925;51.222;5.678;2022-08-21T07:03:40;16.10;99.90
28773;DHT22;15925;51.222;5.678;2022-08-21T07:06:07;16.20;99.90
28773;DHT22;15925;51.222;5.678;2022-08-21T07:08:34;16.30;99.90
28773;DHT22;15925;51.222;5.678;2022-08-21T07:11:02;16.30;99.90
28773;DHT22;15925;51.222;5.678;2022-08-21T07:13:28;16.40;99.90
28773;DHT22;15925;51.222;5.678;2022-08-21T07:15:54;16.50;99.90
28773;DHT22;15925;51.222;5.678;2022-08-21T07:18:20;16.60;99.90
28773;DHT22;15925;51.222;5.678;2022-08-21T07:20:47;16.70;99.90
28773;DHT22;15925;51.222;5.678;2022-08-21T07:23:23;16.70;99.90
28773;DHT22;15925;51.222;5.678;2022-08-21T07:25:50;16.90;99.90
28773;DHT22;15925;51.222;5.678;2022-08-21T07:28:16;16.90;99.90
28773;DHT22;15925;51.222;5.678;2022-08-21T07:30:42;17.00;99.90
28773;DHT22;15925;51.222;5.678;2022-08-21T07:33:08;17.20;99.90
28773;DHT22;15925;51.222;5.678;2022-08-21T07:35:34;17.30;99.90
28773;DHT22;15925;51.222;5.678;2022-08-21T07:38:00;17.40;99.90
28773;DHT22;15925;51.222;5.678;2022-08-21T07:40:25;17.50;99.90
28773;DHT22;15925;51.222;5.678;2022-08-21T07:42:51;17.60;99.90
28773;DHT22;15925;51.222;5.678;2022-08-21T07:45:22;17.60;99.90
28773;DHT22;15925;51.222;5.678;2022-08-21T07:47:50;17.80;99.90
28773;DHT22;15925;51.222;5.678;2022-08-21T07:50:16;17.80;99.90
28773;DHT22;15925;51.222;5.678;2022-08-21T07:52:43;18.00;99.90
28773;DHT22;15925;51.222;5.678;2022-08-21T07:55:15;18.00;99.90
28773;DHT22;15925;51.222;5.678;2022-08-21T07:57:41;18.00;99.90
28773;DHT22;15925;51.222;5.678;2022-08-21T08:00:11;18.10;99.90
28773;DHT22;15925;51.222;5.678;2022-08-21T08:02:40;18.20;99.90
28773;DHT22;15925;51.222;5.678;2022-08-21T08:05:08;18.30;99.90
28773;DHT22;15925;51.222;5.678;2022-08-21T08:07:35;18.30;99.90
28773;DHT22;15925;51.222;5.678;2022-08-21T08:10:02;18.40;99.90
28773;DHT22;15925;51.222;5.678;2022-08-21T08:12:28;18.50;99.90
28773;DHT22;15925;51.222;5.678;2022-08-21T08:14:58;18.60;99.90
28773;DHT22;15925;51.222;5.678;2022-08-21T08:17:25;18.70;99.90
28773;DHT22;15925;51.222;5.678;2022-08-21T08:19:52;18.80;99.90
28773;DHT22;15925;51.222;5.678;2022-08-21T08:22:20;18.90;99.90
28773;DHT22;15925;51.222;5.678;2022-08-21T08:24:47;19.00;99.90
28773;DHT22;15925;51.222;5.678;2022-08-21T08:27:14;19.00;99.90
28773;DHT22;15925;51.222;5.678;2022-08-21T08:29:40;19.20;99.90
28773;DHT22;15925;51.222;5.678;2022-08-21T08:32:06;19.20;99.90
28773;DHT22;15925;51.222;5.678;2022-08-21T08:34:35;19.40;99.90
28773;DHT22;15925;51.222;5.678;2022-08-21T08:37:02;19.60;99.90
28773;DHT22;15925;51.222;5.678;2022-08-21T08:39:29;19.60;99.90
28773;DHT22;15925;51.222;5.678;2022-08-21T08:41:59;19.50;99.90
28773;DHT22;15925;51.222;5.678;2022-08-21T08:44:28;19.60;99.90
28773;DHT22;15925;51.222;5.678;2022-08-21T08:46:54;19.60;99.90
28773;DHT22;15925;51.222;5.678;2022-08-21T08:52:28;19.50;99.90
28773;DHT22;15925;51.222;5.678;2022-08-21T08:57:33;19.60;99.90
28773;DHT22;15925;51.222;5.678;2022-08-21T09:00:04;19.70;99.90
28773;DHT22;15925;51.222;5.678;2022-08-21T09:02:31;19.80;99.90
28773;DHT22;15925;51.222;5.678;2022-08-21T09:04:59;20.00;99.90
28773;DHT22;15925;51.222;5.678;2022-08-21T09:07:36;20.10;99.90
28773;DHT22;15925;51.222;5.678;2022-08-21T09:10:13;20.10;99.90
28773;DHT22;15925;51.222;5.678;2022-08-21T09:12:47;20.20;99.90
28773;DHT22;15925;51.222;5.678;2022-08-21T09:15:29;20.30;99.90
28773;DHT22;15925;51.222;5.678;2022-08-21T09:23:54;20.60;99.90
28773;DHT22;15925;51.222;5.678;2022-08-21T09:26:24;20.70;99.90
28773;DHT22;15925;51.222;5.678;2022-08-21T09:28:58;20.80;99.90
28773;DHT22;15925;51.222;5.678;2022-08-21T09:31:28;20.90;99.90
28773;DHT22;15925;51.222;5.678;2022-08-21T09:34:07;21.10;99.90
28773;DHT22;15925;51.222;5.678;2022-08-21T09:36:44;21.10;99.90
28773;DHT22;15925;51.222;5.678;2022-08-21T09:39:12;21.10;99.90
28773;DHT22;15925;51.222;5.678;2022-08-21T09:41:39;21.10;99.90
28773;DHT22;15925;51.222;5.678;2022-08-21T09:44:07;21.20;99.90
28773;DHT22;15925;51.222;5.678;2022-08-21T09:46:33;21.30;99.90
28773;DHT22;15925;51.222;5.678;2022-08-21T09:49:02;21.30;99.90
28773;DHT22;15925;51.222;5.678;2022-08-21T09:51:34;21.40;99.90
28773;DHT22;15925;51.222;5.678;2022-08-21T09:56:38;21.60;99.90
28773;DHT22;15925;51.222;5.678;2022-08-21T09:59:30;21.60;99.90
28773;DHT22;15925;51.222;5.678;2022-08-21T10:01:59;21.40;99.90
28773;DHT22;15925;51.222;5.678;2022-08-21T10:04:35;21.50;99.90
28773;DHT22;15925;51.222;5.678;2022-08-21T10:07:12;21.70;99.90
28773;DHT22;15925;51.222;5.678;2022-08-21T10:09:38;21.70;99.90
28773;DHT22;15925;51.222;5.678;2022-08-21T10:12:38;21.80;99.90
28773;DHT22;15925;51.222;5.678;2022-08-21T10:15:09;21.90;99.90
28773;DHT22;15925;51.222;5.678;2022-08-21T10:20:32;21.90;99.90
28773;DHT22;15925;51.222;5.678;2022-08-21T10:34:50;22.30;99.90
28773;DHT22;15925;51.222;5.678;2022-08-21T10:43:26;22.50;99.90
28773;DHT22;15925;51.222;5.678;2022-08-21T10:48:59;22.60;99.90
28773;DHT22;15925;51.222;5.678;2022-08-21T10:54:12;22.80;99.90
28773;DHT22;15925;51.222;5.678;2022-08-21T10:56:41;22.80;99.90
28773;DHT22;15925;51.222;5.678;2022-08-21T10:59:31;22.70;99.90
28773;DHT22;15925;51.222;5.678;2022-08-21T11:04:57;22.80;99.90
28773;DHT22;15925;51.222;5.678;2022-08-21T11:07:55;22.90;99.90
28773;DHT22;15925;51.222;5.678;2022-08-21T11:10:27;22.80;99.90
28773;DHT22;15925;51.222;5.678;2022-08-21T11:13:00;23.00;99.90
28773;DHT22;15925;51.222;5.678;2022-08-21T11:18:34;23.10;99.90
28773;DHT22;15925;51.222;5.678;2022-08-21T11:21:27;23.20;99.90
28773;DHT22;15925;51.222;5.678;2022-08-21T11:26:47;23.40;99.90
28773;DHT22;15925;51.222;5.678;2022-08-21T11:29:25;23.50;99.90
28773;DHT22;15925;51.222;5.678;2022-08-21T11:47:35;23.70;99.90
28773;DHT22;15925;51.222;5.678;2022-08-21T11:50:14;23.80;99.90
28773;DHT22;15925;51.222;5.678;2022-08-21T11:52:47;23.80;99.90
28773;DHT22;15925;51.222;5.678;2022-08-21T11:55:39;23.60;99.90
28773;DHT22;15925;51.222;5.678;2022-08-21T11:58:25;23.60;99.90
28773;DHT22;15925;51.222;5.678;2022-08-21T12:01:06;23.70;99.90
28773;DHT22;15925;51.222;5.678;2022-08-21T12:03:35;23.70;99.90
28773;DHT22;15925;51.222;5.678;2022-08-21T12:06:06;23.90;99.90
28773;DHT22;15925;51.222;5.678;2022-08-21T12:08:35;23.90;99.90
28773;DHT22;15925;51.222;5.678;2022-08-21T12:14:11;24.00;99.90
28773;DHT22;15925;51.222;5.678;2022-08-21T12:16:42;24.00;99.90
28773;DHT22;15925;51.222;5.678;2022-08-21T12:26:56;24.00;99.90
28773;DHT22;15925;51.222;5.678;2022-08-21T12:29:28;24.10;99.90
28773;DHT22;15925;51.222;5.678;2022-08-21T12:34:38;24.40;99.90
28773;DHT22;15925;51.222;5.678;2022-08-21T12:40:03;24.50;99.90
28773;DHT22;15925;51.222;5.678;2022-08-21T12:42:41;24.40;99.90
28773;DHT22;15925;51.222;5.678;2022-08-21T12:45:19;24.60;99.90
28773;DHT22;15925;51.222;5.678;2022-08-21T12:47:51;24.60;99.90
28773;DHT22;15925;51.222;5.678;2022-08-21T12:50:32;24.60;99.90
28773;DHT22;15925;51.222;5.678;2022-08-21T12:53:08;24.70;99.90
28773;DHT22;15925;51.222;5.678;2022-08-21T12:55:40;24.80;99.90
28773;DHT22;15925;51.222;5.678;2022-08-21T12:58:06;24.90;99.90
28773;DHT22;15925;51.222;5.678;2022-08-21T13:00:32;24.90;99.90
28773;DHT22;15925;51.222;5.678;2022-08-21T13:02:58;25.00;99.90
28773;DHT22;15925;51.222;5.678;2022-08-21T13:05:33;24.90;99.90
28773;DHT22;15925;51.222;5.678;2022-08-21T13:08:04;24.90;99.90
28773;DHT22;15925;51.222;5.678;2022-08-21T13:10:32;24.80;99.90
28773;DHT22;15925;51.222;5.678;2022-08-21T13:13:02;24.90;99.90
28773;DHT22;15925;51.222;5.678;2022-08-21T13:15:32;24.80;99.90
28773;DHT22;15925;51.222;5.678;2022-08-21T13:17:58;24.60;99.90
28773;DHT22;15925;51.222;5.678;2022-08-21T13:20:35;24.30;99.90
28773;DHT22;15925;51.222;5.678;2022-08-21T13:23:07;24.30;99.90
28773;DHT22;15925;51.222;5.678;2022-08-21T13:25:41;24.40;99.90
28773;DHT22;15925;51.222;5.678;2022-08-21T13:28:09;24.60;99.90
28773;DHT22;15925;51.222;5.678;2022-08-21T13:30:55;24.50;99.90
28773;DHT22;15925;51.222;5.678;2022-08-21T13:33:24;24.40;99.90
28773;DHT22;15925;51.222;5.678;2022-08-21T13:38:29;24.50;99.90
28773;DHT22;15925;51.222;5.678;2022-08-21T13:43:35;24.60;99.90
28773;DHT22;15925;51.222;5.678;2022-08-21T13:46:06;24.80;99.90
28773;DHT22;15925;51.222;5.678;2022-08-21T13:48:34;24.80;99.90
28773;DHT22;15925;51.222;5.678;2022-08-21T13:51:01;24.90;99.90
28773;DHT22;15925;51.222;5.678;2022-08-21T13:53:44;25.00;99.90
28773;DHT22;15925;51.222;5.678;2022-08-21T13:56:41;25.00;99.90
28773;DHT22;15925;51.222;5.678;2022-08-21T13:59:07;25.10;99.90
28773;DHT22;15925;51.222;5.678;2022-08-21T14:01:35;25.30;99.90
28773;DHT22;15925;51.222;5.678;2022-08-21T14:04:18;25.30;99.90
28773;DHT22;15925;51.222;5.678;2022-08-21T14:06:46;25.30;99.90
28773;DHT22;15925;51.222;5.678;2022-08-21T14:09:14;25.30;99.90
28773;DHT22;15925;51.222;5.678;2022-08-21T14:11:45;25.20;99.90
28773;DHT22;15925;51.222;5.678;2022-08-21T14:14:24;25.00;99.90
28773;DHT22;15925;51.222;5.678;2022-08-21T14:16:57;25.00;99.90
28773;DHT22;15925;51.222;5.678;2022-08-21T14:19:36;25.10;99.90
28773;DHT22;15925;51.222;5.678;2022-08-21T14:25:26;25.00;99.70
28773;DHT22;15925;51.222;5.678;2022-08-21T14:27:54;25.00;99.90
28773;DHT22;15925;51.222;5.678;2022-08-21T14:30:29;24.90;99.90
28773;DHT22;15925;51.222;5.678;2022-08-21T14:32:57;25.00;99.90
28773;DHT22;15925;51.222;5.678;2022-08-21T14:35:23;24.90;99.90
28773;DHT22;15925;51.222;5.678;2022-08-21T14:37:49;24.90;99.90
28773;DHT22;15925;51.222;5.678;2022-08-21T14:40:20;24.90;99.90
28773;DHT22;15925;51.222;5.678;2022-08-21T14:42:47;25.00;99.90
28773;DHT22;15925;51.222;5.678;2022-08-21T14:45:41;25.10;99.90
28773;DHT22;15925;51.222;5.678;2022-08-21T14:48:09;25.10;99.10
28773;DHT22;15925;51.222;5.678;2022-08-21T14:50:35;25.00;99.90
28773;DHT22;15925;51.222;5.678;2022-08-21T14:53:01;25.00;99.80
28773;DHT22;15925;51.222;5.678;2022-08-21T14:55:30;25.00;99.80
28773;DHT22;15925;51.222;5.678;2022-08-21T14:57:56;24.80;99.80
28773;DHT22;15925;51.222;5.678;2022-08-21T15:00:24;24.80;99.80
28773;DHT22;15925;51.222;5.678;2022-08-21T15:02:51;24.80;99.70
28773;DHT22;15925;51.222;5.678;2022-08-21T15:05:18;24.60;99.90
28773;DHT22;15925;51.222;5.678;2022-08-21T15:07:44;24.50;99.70
28773;DHT22;15925;51.222;5.678;2022-08-21T15:10:11;24.60;99.70
28773;DHT22;15925;51.222;5.678;2022-08-21T15:12:37;24.60;99.70
28773;DHT22;15925;51.222;5.678;2022-08-21T15:15:07;24.50;99.60
28773;DHT22;15925;51.222;5.678;2022-08-21T15:17:33;24.60;99.30
28773;DHT22;15925;51.222;5.678;2022-08-21T15:19:59;24.70;99.30
28773;DHT22;15925;51.222;5.678;2022-08-21T15:22:24;24.70;99.10
28773;DHT22;15925;51.222;5.678;2022-08-21T15:24:50;24.70;99.10
28773;DHT22;15925;51.222;5.678;2022-08-21T15:27:16;24.70;99.00
28773;DHT22;15925;51.222;5.678;2022-08-21T15:29:44;24.70;99.20
28773;DHT22;15925;51.222;5.678;2022-08-21T15:32:24;24.60;99.20
28773;DHT22;15925;51.222;5.678;2022-08-21T15:34:52;24.70;98.80
28773;DHT22;15925;51.222;5.678;2022-08-21T15:37:19;24.70;99.10
28773;DHT22;15925;51.222;5.678;2022-08-21T15:39:45;24.80;99.20
28773;DHT22;15925;51.222;5.678;2022-08-21T15:42:11;24.80;99.10
28773;DHT22;15925;51.222;5.678;2022-08-21T15:44:42;24.80;99.10
28773;DHT22;15925;51.222;5.678;2022-08-21T15:47:19;24.80;98.70
28773;DHT22;15925;51.222;5.678;2022-08-21T15:49:46;24.70;98.20
28773;DHT22;15925;51.222;5.678;2022-08-21T15:52:14;24.60;98.80
28773;DHT22;15925;51.222;5.678;2022-08-21T15:54:40;24.60;98.70
28773;DHT22;15925;51.222;5.678;2022-08-21T15:57:06;24.60;98.80
28773;DHT22;15925;51.222;5.678;2022-08-21T15:59:40;24.60;97.30
28773;DHT22;15925;51.222;5.678;2022-08-21T16:02:19;24.80;99.00
28773;DHT22;15925;51.222;5.678;2022-08-21T16:04:45;24.90;98.20
28773;DHT22;15925;51.222;5.678;2022-08-21T16:07:11;25.00;98.50
28773;DHT22;15925;51.222;5.678;2022-08-21T16:09:38;24.90;98.50
28773;DHT22;15925;51.222;5.678;2022-08-21T16:12:05;24.80;98.30
28773;DHT22;15925;51.222;5.678;2022-08-21T16:14:33;24.90;98.30
28773;DHT22;15925;51.222;5.678;2022-08-21T16:17:05;25.00;98.40
28773;DHT22;15925;51.222;5.678;2022-08-21T16:19:31;25.10;98.30
28773;DHT22;15925;51.222;5.678;2022-08-21T16:21:57;25.00;98.20
28773;DHT22;15925;51.222;5.678;2022-08-21T16:24:23;24.90;96.60
28773;DHT22;15925;51.222;5.678;2022-08-21T16:26:49;25.00;98.30
28773;DHT22;15925;51.222;5.678;2022-08-21T16:29:15;25.00;98.20
28773;DHT22;15925;51.222;5.678;2022-08-21T16:31:41;24.70;98.40
28773;DHT22;15925;51.222;5.678;2022-08-21T16:34:10;24.60;98.50
28773;DHT22;15925;51.222;5.678;2022-08-21T16:36:39;24.60;98.50
28773;DHT22;15925;51.222;5.678;2022-08-21T16:39:04;24.70;98.60
28773;DHT22;15925;51.222;5.678;2022-08-21T16:41:32;24.70;98.50
28773;DHT22;15925;51.222;5.678;2022-08-21T16:43:59;24.60;98.50
28773;DHT22;15925;51.222;5.678;2022-08-21T16:46:26;24.60;98.40
28773;DHT22;15925;51.222;5.678;2022-08-21T16:48:53;24.50;98.60
28773;DHT22;15925;51.222;5.678;2022-08-21T16:51:19;24.60;98.50
28773;DHT22;15925;51.222;5.678;2022-08-21T16:53:45;24.60;98.40
28773;DHT22;15925;51.222;5.678;2022-08-21T16:56:13;24.50;98.30
28773;DHT22;15925;51.222;5.678;2022-08-21T16:58:43;24.50;98.20
28773;DHT22;15925;51.222;5.678;2022-08-21T17:01:11;24.50;98.30
28773;DHT22;15925;51.222;5.678;2022-08-21T17:03:47;24.70;98.40
28773;DHT22;15925;51.222;5.678;2022-08-21T17:06:16;24.50;97.90
28773;DHT22;15925;51.222;5.678;2022-08-21T17:08:42;24.40;98.40
28773;DHT22;15925;51.222;5.678;2022-08-21T17:11:26;24.30;98.40